sensor_id;sensor_type;location;lat;lon;timestamp;P1;durP1;ratioP1;P2;durP2;ratioP2
59093;SDS011;44880;52.814;18.270;2023-10-13T00:03:38;17.80;;;7.10;;
59093;SDS011;44880;52.814;18.270;2023-10-13T00:06:09;16.90;;;7.10;;
59093;SDS011;44880;52.814;18.270;2023-10-13T00:08:41;21.40;;;7.60;;
59093;SDS011;44880;52.814;18.270;2023-10-13T00:11:14;16.80;;;7.50;;
59093;SDS011;44880;52.814;18.270;2023-10-13T00:13:46;20.40;;;8.20;;
59093;SDS011;44880;52.814;18.270;2023-10-13T00:16:20;18.30;;;8.50;;
59093;SDS011;44880;52.814;18.270;2023-10-13T00:18:55;21.90;;;8.10;;
59093;SDS011;44880;52.814;18.270;2023-10-13T00:21:27;24.00;;;9.70;;
59093;SDS011;44880;52.814;18.270;2023-10-13T00:24:00;22.40;;;8.80;;
59093;SDS011;44880;52.814;18.270;2023-10-13T00:26:34;19.40;;;9.10;;
59093;SDS011;44880;52.814;18.270;2023-10-13T00:29:06;22.50;;;9.10;;
59093;SDS011;44880;52.814;18.270;2023-10-13T00:31:44;21.60;;;8.70;;
59093;SDS011;44880;52.814;18.270;2023-10-13T00:34:17;20.10;;;9.20;;
59093;SDS011;44880;52.814;18.270;2023-10-13T00:36:54;21.00;;;9.30;;
59093;SDS011;44880;52.814;18.270;2023-10-13T00:39:55;21.50;;;9.30;;
59093;SDS011;44880;52.814;18.270;2023-10-13T00:42:29;22.60;;;9.00;;
59093;SDS011;44880;52.814;18.270;2023-10-13T00:45:19;23.60;;;10.50;;
59093;SDS011;44880;52.814;18.270;2023-10-13T00:47:51;25.50;;;11.10;;
59093;SDS011;44880;52.814;18.270;2023-10-13T00:50:29;23.70;;;10.80;;
59093;SDS011;44880;52.814;18.270;2023-10-13T00:53:05;26.20;;;9.60;;
59093;SDS011;44880;52.814;18.270;2023-10-13T00:58:09;24.70;;;10.70;;
59093;SDS011;44880;52.814;18.270;2023-10-13T01:00:43;21.70;;;9.60;;
59093;SDS011;44880;52.814;18.270;2023-10-13T01:03:16;25.60;;;11.10;;
59093;SDS011;44880;52.814;18.270;2023-10-13T01:05:55;27.10;;;12.30;;
59093;SDS011;44880;52.814;18.270;2023-10-13T01:08:33;21.50;;;9.80;;
59093;SDS011;44880;52.814;18.270;2023-10-13T01:11:06;19.80;;;10.00;;
59093;SDS011;44880;52.814;18.270;2023-10-13T01:13:39;21.50;;;10.20;;
59093;SDS011;44880;52.814;18.270;2023-10-13T01:16:10;17.70;;;9.40;;
59093;SDS011;44880;52.814;18.270;2023-10-13T01:18:43;19.30;;;9.30;;
59093;SDS011;44880;52.814;18.270;2023-10-13T01:21:18;21.20;;;10.20;;
59093;SDS011;44880;52.814;18.270;2023-10-13T01:23:55;20.20;;;9.80;;
59093;SDS011;44880;52.814;18.270;2023-10-13T01:26:27;20.20;;;9.20;;
59093;SDS011;44880;52.814;18.270;2023-10-13T01:29:01;21.10;;;10.20;;
59093;SDS011;44880;52.814;18.270;2023-10-13T01:31:40;21.80;;;10.40;;
59093;SDS011;44880;52.814;18.270;2023-10-13T01:34:16;22.10;;;12.10;;
59093;SDS011;44880;52.814;18.270;2023-10-13T01:36:50;19.20;;;10.40;;
59093;SDS011;44880;52.814;18.270;2023-10-13T01:39:23;17.10;;;9.10;;
59093;SDS011;44880;52.814;18.270;2023-10-13T01:41:57;17.70;;;9.00;;
59093;SDS011;44880;52.814;18.270;2023-10-13T01:44:29;17.70;;;8.60;;
59093;SDS011;44880;52.814;18.270;2023-10-13T01:47:01;24.20;;;11.70;;
59093;SDS011;44880;52.814;18.270;2023-10-13T01:49:34;17.00;;;9.60;;
59093;SDS011;44880;52.814;18.270;2023-10-13T01:52:10;19.70;;;9.90;;
59093;SDS011;44880;52.814;18.270;2023-10-13T01:54:44;19.60;;;10.00;;
59093;SDS011;44880;52.814;18.270;2023-10-13T01:57:17;17.70;;;9.50;;
59093;SDS011;44880;52.814;18.270;2023-10-13T01:59:52;20.00;;;10.00;;
59093;SDS011;44880;52.814;18.270;2023-10-13T02:04:58;18.00;;;9.20;;
59093;SDS011;44880;52.814;18.270;2023-10-13T02:07:30;20.80;;;9.40;;
59093;SDS011;44880;52.814;18.270;2023-10-13T02:10:02;16.40;;;8.50;;
59093;SDS011;44880;52.814;18.270;2023-10-13T02:12:35;16.10;;;8.30;;
59093;SDS011;44880;52.814;18.270;2023-10-13T02:15:12;15.80;;;7.60;;
59093;SDS011;44880;52.814;18.270;2023-10-13T02:17:51;14.60;;;6.70;;
59093;SDS011;44880;52.814;18.270;2023-10-13T02:20:23;16.10;;;6.70;;
59093;SDS011;44880;52.814;18.270;2023-10-13T02:23:02;14.70;;;7.40;;
59093;SDS011;44880;52.814;18.270;2023-10-13T02:25:39;13.90;;;5.70;;
59093;SDS011;44880;52.814;18.270;2023-10-13T02:28:14;12.30;;;5.70;;
59093;SDS011;44880;52.814;18.270;2023-10-13T02:30:49;9.00;;;4.10;;
59093;SDS011;44880;52.814;18.270;2023-10-13T02:33:21;15.90;;;4.80;;
59093;SDS011;44880;52.814;18.270;2023-10-13T02:35:59;12.80;;;4.60;;
59093;SDS011;44880;52.814;18.270;2023-10-13T02:38:33;11.40;;;4.70;;
59093;SDS011;44880;52.814;18.270;2023-10-13T02:41:14;10.90;;;5.20;;
59093;SDS011;44880;52.814;18.270;2023-10-13T02:43:54;13.20;;;5.70;;
59093;SDS011;44880;52.814;18.270;2023-10-13T02:46:26;16.30;;;7.90;;
59093;SDS011;44880;52.814;18.270;2023-10-13T02:48:58;15.50;;;8.10;;
59093;SDS011;44880;52.814;18.270;2023-10-13T02:51:37;15.80;;;8.40;;
59093;SDS011;44880;52.814;18.270;2023-10-13T02:54:12;15.00;;;8.60;;
59093;SDS011;44880;52.814;18.270;2023-10-13T02:56:46;18.50;;;10.40;;
59093;SDS011;44880;52.814;18.270;2023-10-13T02:59:25;20.10;;;12.00;;
59093;SDS011;44880;52.814;18.270;2023-10-13T03:02:08;29.80;;;16.00;;
59093;SDS011;44880;52.814;18.270;2023-10-13T03:04:53;43.40;;;19.00;;
59093;SDS011;44880;52.814;18.270;2023-10-13T03:07:28;34.40;;;15.80;;
59093;SDS011;44880;52.814;18.270;2023-10-13T03:10:00;40.60;;;20.10;;
59093;SDS011;44880;52.814;18.270;2023-10-13T03:12:38;34.70;;;17.80;;
59093;SDS011;44880;52.814;18.270;2023-10-13T03:15:10;30.10;;;16.20;;
59093;SDS011;44880;52.814;18.270;2023-10-13T03:17:45;28.50;;;15.40;;
59093;SDS011;44880;52.814;18.270;2023-10-13T03:20:17;26.60;;;14.40;;
59093;SDS011;44880;52.814;18.270;2023-10-13T03:22:52;24.40;;;13.90;;
59093;SDS011;44880;52.814;18.270;2023-10-13T03:25:23;23.70;;;14.10;;
59093;SDS011;44880;52.814;18.270;2023-10-13T03:28:05;32.20;;;15.40;;
59093;SDS011;44880;52.814;18.270;2023-10-13T03:30:40;34.10;;;15.20;;
59093;SDS011;44880;52.814;18.270;2023-10-13T03:33:12;31.50;;;15.80;;
59093;SDS011;44880;52.814;18.270;2023-10-13T03:35:54;32.80;;;15.00;;
59093;SDS011;44880;52.814;18.270;2023-10-13T03:38:33;36.10;;;16.20;;
59093;SDS011;44880;52.814;18.270;2023-10-13T03:41:08;35.40;;;17.80;;
59093;SDS011;44880;52.814;18.270;2023-10-13T03:43:48;37.40;;;18.40;;
59093;SDS011;44880;52.814;18.270;2023-10-13T03:46:35;28.90;;;14.80;;
59093;SDS011;44880;52.814;18.270;2023-10-13T03:49:09;29.00;;;14.40;;
59093;SDS011;44880;52.814;18.270;2023-10-13T03:51:44;27.60;;;14.20;;
59093;SDS011;44880;52.814;18.270;2023-10-13T03:56:46;32.40;;;14.40;;
59093;SDS011;44880;52.814;18.270;2023-10-13T03:59:20;28.00;;;13.20;;
59093;SDS011;44880;52.814;18.270;2023-10-13T04:02:03;31.70;;;14.20;;
59093;SDS011;44880;52.814;18.270;2023-10-13T04:04:40;29.00;;;14.30;;
59093;SDS011;44880;52.814;18.270;2023-10-13T04:07:16;28.70;;;14.00;;
59093;SDS011;44880;52.814;18.270;2023-10-13T04:10:06;28.40;;;15.50;;
59093;SDS011;44880;52.814;18.270;2023-10-13T04:12:52;21.70;;;12.70;;
59093;SDS011;44880;52.814;18.270;2023-10-13T04:15:44;22.70;;;12.30;;
59093;SDS011;44880;52.814;18.270;2023-10-13T04:18:29;20.00;;;12.80;;
59093;SDS011;44880;52.814;18.270;2023-10-13T04:21:18;23.90;;;11.70;;
59093;SDS011;44880;52.814;18.270;2023-10-13T04:24:04;20.90;;;11.20;;
59093;SDS011;44880;52.814;18.270;2023-10-13T04:26:57;17.10;;;9.20;;
59093;SDS011;44880;52.814;18.270;2023-10-13T04:29:42;18.90;;;9.90;;
59093;SDS011;44880;52.814;18.270;2023-10-13T04:32:25;19.30;;;10.30;;
59093;SDS011;44880;52.814;18.270;2023-10-13T04:35:07;20.20;;;10.40;;
59093;SDS011;44880;52.814;18.270;2023-10-13T04:37:46;22.60;;;10.60;;
59093;SDS011;44880;52.814;18.270;2023-10-13T04:40:23;22.70;;;12.60;;
59093;SDS011;44880;52.814;18.270;2023-10-13T04:45:26;19.90;;;11.70;;
59093;SDS011;44880;52.814;18.270;2023-10-13T04:48:15;15.90;;;10.30;;
59093;SDS011;44880;52.814;18.270;2023-10-13T04:51:00;17.60;;;9.90;;
59093;SDS011;44880;52.814;18.270;2023-10-13T04:53:46;18.50;;;10.50;;
59093;SDS011;44880;52.814;18.270;2023-10-13T04:56:32;18.20;;;10.10;;
59093;SDS011;44880;52.814;18.270;2023-10-13T04:59:27;19.90;;;10.80;;
59093;SDS011;44880;52.814;18.270;2023-10-13T05:02:05;17.10;;;10.60;;
59093;SDS011;44880;52.814;18.270;2023-10-13T05:04:55;18.30;;;10.30;;
59093;SDS011;44880;52.814;18.270;2023-10-13T05:07:50;18.40;;;9.90;;
59093;SDS011;44880;52.814;18.270;2023-10-13T05:10:39;19.30;;;11.40;;
59093;SDS011;44880;52.814;18.270;2023-10-13T05:13:28;16.80;;;10.40;;
59093;SDS011;44880;52.814;18.270;2023-10-13T05:16:17;14.30;;;8.70;;
59093;SDS011;44880;52.814;18.270;2023-10-13T05:19:06;14.10;;;8.30;;
59093;SDS011;44880;52.814;18.270;2023-10-13T05:21:55;12.20;;;7.10;;
59093;SDS011;44880;52.814;18.270;2023-10-13T05:24:44;12.50;;;7.50;;
59093;SDS011;44880;52.814;18.270;2023-10-13T05:27:33;15.10;;;8.20;;
59093;SDS011;44880;52.814;18.270;2023-10-13T05:30:22;15.80;;;8.80;;
59093;SDS011;44880;52.814;18.270;2023-10-13T05:33:11;15.00;;;8.60;;
59093;SDS011;44880;52.814;18.270;2023-10-13T05:36:12;17.80;;;9.30;;
59093;SDS011;44880;52.814;18.270;2023-10-13T05:39:01;18.60;;;10.40;;
59093;SDS011;44880;52.814;18.270;2023-10-13T05:41:50;16.70;;;9.90;;
59093;SDS011;44880;52.814;18.270;2023-10-13T05:44:39;16.60;;;10.20;;
59093;SDS011;44880;52.814;18.270;2023-10-13T05:47:24;17.00;;;9.90;;
59093;SDS011;44880;52.814;18.270;2023-10-13T05:50:09;14.50;;;8.50;;
59093;SDS011;44880;52.814;18.270;2023-10-13T05:53:18;17.00;;;8.50;;
59093;SDS011;44880;52.814;18.270;2023-10-13T05:56:07;16.80;;;9.30;;
59093;SDS011;44880;52.814;18.270;2023-10-13T05:58:56;15.20;;;9.20;;
59093;SDS011;44880;52.814;18.270;2023-10-13T06:01:45;17.20;;;9.60;;
59093;SDS011;44880;52.814;18.270;2023-10-13T06:04:34;20.30;;;9.90;;
59093;SDS011;44880;52.814;18.270;2023-10-13T06:07:23;20.10;;;10.50;;
59093;SDS011;44880;52.814;18.270;2023-10-13T06:10:12;19.50;;;10.60;;
59093;SDS011;44880;52.814;18.270;2023-10-13T06:13:02;18.50;;;10.40;;
59093;SDS011;44880;52.814;18.270;2023-10-13T06:15:51;23.80;;;12.60;;
59093;SDS011;44880;52.814;18.270;2023-10-13T06:18:40;22.20;;;11.50;;
59093;SDS011;44880;52.814;18.270;2023-10-13T06:21:26;22.90;;;14.50;;
59093;SDS011;44880;52.814;18.270;2023-10-13T06:24:15;21.80;;;12.70;;
59093;SDS011;44880;52.814;18.270;2023-10-13T06:27:05;34.70;;;25.50;;
59093;SDS011;44880;52.814;18.270;2023-10-13T06:29:54;29.50;;;19.80;;
59093;SDS011;44880;52.814;18.270;2023-10-13T06:32:26;33.00;;;22.30;;
59093;SDS011;44880;52.814;18.270;2023-10-13T06:34:58;27.40;;;16.90;;
59093;SDS011;44880;52.814;18.270;2023-10-13T06:37:35;26.60;;;14.60;;
59093;SDS011;44880;52.814;18.270;2023-10-13T06:40:11;23.10;;;13.70;;
59093;SDS011;44880;52.814;18.270;2023-10-13T06:42:54;23.40;;;13.00;;
59093;SDS011;44880;52.814;18.270;2023-10-13T06:45:40;22.70;;;14.10;;
59093;SDS011;44880;52.814;18.270;2023-10-13T06:48:12;22.10;;;13.90;;
59093;SDS011;44880;52.814;18.270;2023-10-13T06:50:49;22.20;;;13.50;;
59093;SDS011;44880;52.814;18.270;2023-10-13T06:53:24;23.60;;;13.90;;
59093;SDS011;44880;52.814;18.270;2023-10-13T06:55:58;28.10;;;15.40;;
59093;SDS011;44880;52.814;18.270;2023-10-13T06:58:31;25.50;;;15.20;;
59093;SDS011;44880;52.814;18.270;2023-10-13T07:03:43;24.50;;;16.30;;
59093;SDS011;44880;52.814;18.270;2023-10-13T07:06:21;24.70;;;15.10;;
59093;SDS011;44880;52.814;18.270;2023-10-13T07:08:54;22.80;;;14.00;;
59093;SDS011;44880;52.814;18.270;2023-10-13T07:14:03;27.50;;;17.90;;
59093;SDS011;44880;52.814;18.270;2023-10-13T07:16:42;24.30;;;16.40;;
59093;SDS011;44880;52.814;18.270;2023-10-13T07:19:15;23.80;;;14.20;;
59093;SDS011;44880;52.814;18.270;2023-10-13T07:21:47;24.20;;;13.70;;
59093;SDS011;44880;52.814;18.270;2023-10-13T07:24:27;21.80;;;14.30;;
59093;SDS011;44880;52.814;18.270;2023-10-13T07:27:01;33.00;;;20.70;;
59093;SDS011;44880;52.814;18.270;2023-10-13T07:29:34;25.20;;;16.90;;
59093;SDS011;44880;52.814;18.270;2023-10-13T07:32:06;24.10;;;14.10;;
59093;SDS011;44880;52.814;18.270;2023-10-13T07:34:41;20.20;;;13.40;;
59093;SDS011;44880;52.814;18.270;2023-10-13T07:37:17;23.30;;;15.30;;
59093;SDS011;44880;52.814;18.270;2023-10-13T07:39:51;22.60;;;13.50;;
59093;SDS011;44880;52.814;18.270;2023-10-13T07:42:26;20.10;;;12.30;;
59093;SDS011;44880;52.814;18.270;2023-10-13T07:45:08;26.60;;;15.60;;
59093;SDS011;44880;52.814;18.270;2023-10-13T07:47:42;24.50;;;13.60;;
59093;SDS011;44880;52.814;18.270;2023-10-13T07:50:14;20.80;;;11.80;;
59093;SDS011;44880;52.814;18.270;2023-10-13T07:52:53;21.60;;;12.50;;
59093;SDS011;44880;52.814;18.270;2023-10-13T07:55:33;24.90;;;14.30;;
59093;SDS011;44880;52.814;18.270;2023-10-13T07:58:10;24.00;;;15.30;;
59093;SDS011;44880;52.814;18.270;2023-10-13T08:00:46;29.70;;;19.30;;
59093;SDS011;44880;52.814;18.270;2023-10-13T08:03:23;27.70;;;19.00;;
59093;SDS011;44880;52.814;18.270;2023-10-13T08:06:13;19.10;;;12.10;;
59093;SDS011;44880;52.814;18.270;2023-10-13T08:08:50;20.50;;;10.40;;
59093;SDS011;44880;52.814;18.270;2023-10-13T08:11:43;15.70;;;8.00;;
59093;SDS011;44880;52.814;18.270;2023-10-13T08:14:18;14.70;;;7.80;;
59093;SDS011;44880;52.814;18.270;2023-10-13T08:16:52;17.50;;;8.10;;
59093;SDS011;44880;52.814;18.270;2023-10-13T08:19:28;16.60;;;8.90;;
59093;SDS011;44880;52.814;18.270;2023-10-13T08:22:14;16.00;;;7.80;;
59093;SDS011;44880;52.814;18.270;2023-10-13T08:25:04;17.60;;;8.50;;
59093;SDS011;44880;52.814;18.270;2023-10-13T08:28:14;14.90;;;7.90;;
59093;SDS011;44880;52.814;18.270;2023-10-13T08:31:05;16.80;;;9.00;;
59093;SDS011;44880;52.814;18.270;2023-10-13T08:33:52;18.00;;;9.50;;
59093;SDS011;44880;52.814;18.270;2023-10-13T08:36:44;14.80;;;7.00;;
59093;SDS011;44880;52.814;18.270;2023-10-13T08:39:16;15.60;;;8.20;;
59093;SDS011;44880;52.814;18.270;2023-10-13T08:42:32;14.50;;;7.00;;
59093;SDS011;44880;52.814;18.270;2023-10-13T08:45:21;16.20;;;6.50;;
59093;SDS011;44880;52.814;18.270;2023-10-13T08:48:15;13.90;;;6.90;;
59093;SDS011;44880;52.814;18.270;2023-10-13T08:50:48;16.40;;;6.80;;
59093;SDS011;44880;52.814;18.270;2023-10-13T08:53:24;15.40;;;7.90;;
59093;SDS011;44880;52.814;18.270;2023-10-13T08:56:12;17.80;;;8.30;;
59093;SDS011;44880;52.814;18.270;2023-10-13T08:58:47;17.90;;;9.40;;
59093;SDS011;44880;52.814;18.270;2023-10-13T09:01:36;20.40;;;8.50;;
59093;SDS011;44880;52.814;18.270;2023-10-13T09:04:14;18.20;;;8.30;;
59093;SDS011;44880;52.814;18.270;2023-10-13T09:07:00;24.60;;;10.10;;
59093;SDS011;44880;52.814;18.270;2023-10-13T09:09:47;23.10;;;9.80;;
59093;SDS011;44880;52.814;18.270;2023-10-13T09:12:43;18.50;;;9.50;;
59093;SDS011;44880;52.814;18.270;2023-10-13T09:15:31;19.10;;;9.20;;
59093;SDS011;44880;52.814;18.270;2023-10-13T09:18:24;21.90;;;8.90;;
59093;SDS011;44880;52.814;18.270;2023-10-13T09:21:11;17.20;;;9.10;;
59093;SDS011;44880;52.814;18.270;2023-10-13T09:24:09;17.20;;;7.50;;
59093;SDS011;44880;52.814;18.270;2023-10-13T09:27:01;15.30;;;6.20;;
59093;SDS011;44880;52.814;18.270;2023-10-13T09:29:59;15.20;;;6.90;;
59093;SDS011;44880;52.814;18.270;2023-10-13T09:32:38;17.30;;;7.60;;
59093;SDS011;44880;52.814;18.270;2023-10-13T09:35:18;17.30;;;7.60;;
59093;SDS011;44880;52.814;18.270;2023-10-13T09:37:51;16.10;;;7.90;;
59093;SDS011;44880;52.814;18.270;2023-10-13T09:40:25;18.80;;;7.60;;
59093;SDS011;44880;52.814;18.270;2023-10-13T09:43:20;17.50;;;7.60;;
59093;SDS011;44880;52.814;18.270;2023-10-13T09:45:59;15.10;;;7.90;;
59093;SDS011;44880;52.814;18.270;2023-10-13T09:48:35;19.30;;;8.10;;
59093;SDS011;44880;52.814;18.270;2023-10-13T09:51:11;20.00;;;7.90;;
59093;SDS011;44880;52.814;18.270;2023-10-13T09:53:50;20.30;;;10.00;;
59093;SDS011;44880;52.814;18.270;2023-10-13T09:56:27;16.40;;;7.20;;
59093;SDS011;44880;52.814;18.270;2023-10-13T09:59:07;19.00;;;8.00;;
59093;SDS011;44880;52.814;18.270;2023-10-13T10:01:41;17.00;;;8.30;;
59093;SDS011;44880;52.814;18.270;2023-10-13T10:04:19;18.80;;;8.60;;
59093;SDS011;44880;52.814;18.270;2023-10-13T10:06:55;18.90;;;8.50;;
59093;SDS011;44880;52.814;18.270;2023-10-13T10:09:28;19.40;;;8.60;;
59093;SDS011;44880;52.814;18.270;2023-10-13T10:12:12;19.00;;;8.40;;
59093;SDS011;44880;52.814;18.270;2023-10-13T10:14:59;20.40;;;9.10;;
59093;SDS011;44880;52.814;18.270;2023-10-13T10:17:42;19.00;;;9.00;;
59093;SDS011;44880;52.814;18.270;2023-10-13T10:20:33;15.00;;;7.80;;
59093;SDS011;44880;52.814;18.270;2023-10-13T10:26:18;18.30;;;8.00;;
59093;SDS011;44880;52.814;18.270;2023-10-13T10:31:22;16.00;;;7.80;;
59093;SDS011;44880;52.814;18.270;2023-10-13T10:34:13;18.10;;;7.80;;
59093;SDS011;44880;52.814;18.270;2023-10-13T10:36:48;22.60;;;9.00;;
59093;SDS011;44880;52.814;18.270;2023-10-13T10:39:40;19.90;;;9.50;;
59093;SDS011;44880;52.814;18.270;2023-10-13T10:42:15;18.50;;;8.50;;
59093;SDS011;44880;52.814;18.270;2023-10-13T10:44:55;18.40;;;8.20;;
59093;SDS011;44880;52.814;18.270;2023-10-13T10:47:47;17.30;;;8.30;;
59093;SDS011;44880;52.814;18.270;2023-10-13T10:53:05;16.30;;;8.30;;
59093;SDS011;44880;52.814;18.270;2023-10-13T10:55:37;18.90;;;9.30;;
59093;SDS011;44880;52.814;18.270;2023-10-13T11:01:06;15.80;;;9.00;;
59093;SDS011;44880;52.814;18.270;2023-10-13T11:03:40;19.40;;;8.90;;
59093;SDS011;44880;52.814;18.270;2023-10-13T11:09:05;15.30;;;8.00;;
59093;SDS011;44880;52.814;18.270;2023-10-13T11:11:47;16.50;;;9.50;;
59093;SDS011;44880;52.814;18.270;2023-10-13T11:14:28;16.10;;;8.80;;
59093;SDS011;44880;52.814;18.270;2023-10-13T11:17:00;18.60;;;8.30;;
59093;SDS011;44880;52.814;18.270;2023-10-13T11:19:37;19.60;;;8.90;;
59093;SDS011;44880;52.814;18.270;2023-10-13T11:22:36;16.90;;;9.20;;
59093;SDS011;44880;52.814;18.270;2023-10-13T11:25:10;18.50;;;9.30;;
59093;SDS011;44880;52.814;18.270;2023-10-13T11:27:58;20.30;;;9.60;;
59093;SDS011;44880;52.814;18.270;2023-10-13T11:30:44;18.70;;;9.60;;
59093;SDS011;44880;52.814;18.270;2023-10-13T11:33:19;18.00;;;9.70;;
59093;SDS011;44880;52.814;18.270;2023-10-13T11:38:57;17.10;;;10.20;;
59093;SDS011;44880;52.814;18.270;2023-10-13T11:44:15;18.90;;;10.40;;
59093;SDS011;44880;52.814;18.270;2023-10-13T11:50:12;17.90;;;11.50;;
59093;SDS011;44880;52.814;18.270;2023-10-13T11:53:09;19.20;;;12.00;;
59093;SDS011;44880;52.814;18.270;2023-10-13T11:55:42;19.50;;;11.40;;
59093;SDS011;44880;52.814;18.270;2023-10-13T12:01:18;19.50;;;11.60;;
59093;SDS011;44880;52.814;18.270;2023-10-13T12:04:36;19.40;;;11.90;;
59093;SDS011;44880;52.814;18.270;2023-10-13T12:13:40;15.80;;;11.00;;
59093;SDS011;44880;52.814;18.270;2023-10-13T12:16:12;17.40;;;12.00;;
59093;SDS011;44880;52.814;18.270;2023-10-13T12:19:22;18.40;;;11.10;;
59093;SDS011;44880;52.814;18.270;2023-10-13T12:22:41;16.20;;;10.90;;
59093;SDS011;44880;52.814;18.270;2023-10-13T12:25:39;18.10;;;10.80;;
59093;SDS011;44880;52.814;18.270;2023-10-13T12:28:23;15.20;;;9.70;;
59093;SDS011;44880;52.814;18.270;2023-10-13T12:31:36;15.90;;;8.90;;
59093;SDS011;44880;52.814;18.270;2023-10-13T12:34:15;17.60;;;10.00;;
59093;SDS011;44880;52.814;18.270;2023-10-13T12:37:24;15.80;;;9.10;;
59093;SDS011;44880;52.814;18.270;2023-10-13T12:40:28;19.40;;;11.30;;
59093;SDS011;44880;52.814;18.270;2023-10-13T12:52:50;19.40;;;12.00;;
59093;SDS011;44880;52.814;18.270;2023-10-13T12:55:25;16.70;;;10.40;;
59093;SDS011;44880;52.814;18.270;2023-10-13T13:00:43;15.70;;;10.50;;
59093;SDS011;44880;52.814;18.270;2023-10-13T13:03:17;16.20;;;10.20;;
59093;SDS011;44880;52.814;18.270;2023-10-13T13:06:51;17.60;;;11.20;;
59093;SDS011;44880;52.814;18.270;2023-10-13T13:09:37;16.30;;;10.70;;
59093;SDS011;44880;52.814;18.270;2023-10-13T13:12:08;15.80;;;10.40;;
59093;SDS011;44880;52.814;18.270;2023-10-13T13:14:42;18.30;;;10.20;;
59093;SDS011;44880;52.814;18.270;2023-10-13T13:17:25;18.10;;;9.30;;
59093;SDS011;44880;52.814;18.270;2023-10-13T13:19:57;17.70;;;9.00;;
59093;SDS011;44880;52.814;18.270;2023-10-13T13:22:40;14.40;;;9.00;;
59093;SDS011;44880;52.814;18.270;2023-10-13T13:25:47;13.70;;;8.50;;
59093;SDS011;44880;52.814;18.270;2023-10-13T13:28:41;15.40;;;8.60;;
59093;SDS011;44880;52.814;18.270;2023-10-13T13:31:15;13.90;;;7.60;;
59093;SDS011;44880;52.814;18.270;2023-10-13T13:33:51;14.00;;;7.30;;
59093;SDS011;44880;52.814;18.270;2023-10-13T13:36:39;13.30;;;7.80;;
59093;SDS011;44880;52.814;18.270;2023-10-13T13:39:13;16.20;;;8.40;;
59093;SDS011;44880;52.814;18.270;2023-10-13T13:44:51;14.70;;;9.10;;
59093;SDS011;44880;52.814;18.270;2023-10-13T13:50:37;14.50;;;9.30;;
59093;SDS011;44880;52.814;18.270;2023-10-13T13:53:45;19.40;;;11.50;;
59093;SDS011;44880;52.814;18.270;2023-10-13T13:56:25;16.80;;;11.10;;
59093;SDS011;44880;52.814;18.270;2023-10-13T13:59:24;16.50;;;10.20;;
59093;SDS011;44880;52.814;18.270;2023-10-13T14:02:02;15.40;;;9.30;;
59093;SDS011;44880;52.814;18.270;2023-10-13T14:04:57;15.00;;;9.60;;
59093;SDS011;44880;52.814;18.270;2023-10-13T14:07:30;14.90;;;9.40;;
59093;SDS011;44880;52.814;18.270;2023-10-13T14:13:17;17.30;;;9.90;;
59093;SDS011;44880;52.814;18.270;2023-10-13T14:16:19;16.90;;;10.10;;
59093;SDS011;44880;52.814;18.270;2023-10-13T14:18:54;16.50;;;9.90;;
59093;SDS011;44880;52.814;18.270;2023-10-13T14:24:23;17.00;;;10.00;;
59093;SDS011;44880;52.814;18.270;2023-10-13T14:29:52;17.20;;;9.30;;
59093;SDS011;44880;52.814;18.270;2023-10-13T14:32:28;17.40;;;9.00;;
59093;SDS011;44880;52.814;18.270;2023-10-13T14:35:55;17.70;;;9.60;;
59093;SDS011;44880;52.814;18.270;2023-10-13T14:38:49;14.30;;;9.80;;
59093;SDS011;44880;52.814;18.270;2023-10-13T14:41:25;17.20;;;9.70;;
59093;SDS011;44880;52.814;18.270;2023-10-13T14:46:57;18.10;;;11.90;;
59093;SDS011;44880;52.814;18.270;2023-10-13T14:50:00;16.20;;;10.40;;
59093;SDS011;44880;52.814;18.270;2023-10-13T14:52:33;18.20;;;10.80;;
59093;SDS011;44880;52.814;18.270;2023-10-13T14:58:11;17.90;;;10.90;;
59093;SDS011;44880;52.814;18.270;2023-10-13T15:01:11;16.20;;;9.80;;
59093;SDS011;44880;52.814;18.270;2023-10-13T15:03:47;17.50;;;9.40;;
59093;SDS011;44880;52.814;18.270;2023-10-13T15:10:51;15.80;;;10.20;;
59093;SDS011;44880;52.814;18.270;2023-10-13T15:13:41;18.50;;;10.40;;
59093;SDS011;44880;52.814;18.270;2023-10-13T15:19:04;19.30;;;11.30;;
59093;SDS011;44880;52.814;18.270;2023-10-13T15:21:36;15.60;;;10.10;;
59093;SDS011;44880;52.814;18.270;2023-10-13T15:27:43;16.80;;;9.90;;
59093;SDS011;44880;52.814;18.270;2023-10-13T15:30:38;16.90;;;10.30;;
59093;SDS011;44880;52.814;18.270;2023-10-13T15:36:22;18.00;;;11.20;;
59093;SDS011;44880;52.814;18.270;2023-10-13T15:38:56;18.60;;;12.00;;
59093;SDS011;44880;52.814;18.270;2023-10-13T15:41:49;16.90;;;10.80;;
59093;SDS011;44880;52.814;18.270;2023-10-13T15:47:50;16.40;;;11.20;;
59093;SDS011;44880;52.814;18.270;2023-10-13T15:50:36;18.60;;;12.50;;
59093;SDS011;44880;52.814;18.270;2023-10-13T15:53:09;18.30;;;11.30;;
59093;SDS011;44880;52.814;18.270;2023-10-13T15:55:42;21.60;;;12.80;;
59093;SDS011;44880;52.814;18.270;2023-10-13T15:58:14;17.30;;;10.40;;
59093;SDS011;44880;52.814;18.270;2023-10-13T16:00:48;16.10;;;10.40;;
59093;SDS011;44880;52.814;18.270;2023-10-13T16:03:25;16.70;;;11.40;;
59093;SDS011;44880;52.814;18.270;2023-10-13T16:05:59;18.40;;;11.30;;
59093;SDS011;44880;52.814;18.270;2023-10-13T16:08:39;30.40;;;18.10;;
59093;SDS011;44880;52.814;18.270;2023-10-13T16:11:14;70.40;;;30.20;;
59093;SDS011;44880;52.814;18.270;2023-10-13T16:13:48;44.40;;;25.60;;
59093;SDS011;44880;52.814;18.270;2023-10-13T16:16:21;23.50;;;16.60;;
59093;SDS011;44880;52.814;18.270;2023-10-13T16:18:54;18.10;;;12.70;;
59093;SDS011;44880;52.814;18.270;2023-10-13T16:21:26;18.80;;;11.50;;
59093;SDS011;44880;52.814;18.270;2023-10-13T16:23:59;18.30;;;10.90;;
59093;SDS011;44880;52.814;18.270;2023-10-13T16:26:32;19.00;;;12.30;;
59093;SDS011;44880;52.814;18.270;2023-10-13T16:29:05;17.80;;;12.30;;
59093;SDS011;44880;52.814;18.270;2023-10-13T16:31:37;17.60;;;12.00;;
59093;SDS011;44880;52.814;18.270;2023-10-13T16:34:13;19.30;;;12.20;;
59093;SDS011;44880;52.814;18.270;2023-10-13T16:36:46;19.50;;;12.60;;
59093;SDS011;44880;52.814;18.270;2023-10-13T16:39:24;20.00;;;13.50;;
59093;SDS011;44880;52.814;18.270;2023-10-13T16:41:57;19.40;;;13.00;;
59093;SDS011;44880;52.814;18.270;2023-10-13T16:44:30;18.30;;;13.00;;
59093;SDS011;44880;52.814;18.270;2023-10-13T16:47:10;18.40;;;12.90;;
59093;SDS011;44880;52.814;18.270;2023-10-13T16:52:22;18.60;;;12.20;;
59093;SDS011;44880;52.814;18.270;2023-10-13T16:54:58;18.00;;;12.60;;
59093;SDS011;44880;52.814;18.270;2023-10-13T16:57:32;19.20;;;12.60;;
59093;SDS011;44880;52.814;18.270;2023-10-13T17:00:07;17.90;;;12.40;;
59093;SDS011;44880;52.814;18.270;2023-10-13T17:02:44;19.40;;;13.20;;
59093;SDS011;44880;52.814;18.270;2023-10-13T17:05:25;18.50;;;13.30;;
59093;SDS011;44880;52.814;18.270;2023-10-13T17:07:57;19.40;;;13.90;;
59093;SDS011;44880;52.814;18.270;2023-10-13T17:10:32;20.80;;;14.50;;
59093;SDS011;44880;52.814;18.270;2023-10-13T17:13:07;21.60;;;14.60;;
59093;SDS011;44880;52.814;18.270;2023-10-13T17:15:41;18.50;;;12.80;;
59093;SDS011;44880;52.814;18.270;2023-10-13T17:18:17;17.10;;;11.10;;